Galesburg, IL (61401)

5:02 AM CDT on June 30, 2015 (GMT -0500)
N9VPV | | Change Station
CLOSE
Current Station
Personal Weather Station
Location: Galesburg, IL
Elevation: 777 ft
Nearby Weather Stations

Elev 777 ft 40.95 °N, 90.39 °W | Updated 2 minutes ago

Clear
Clear
62.5 °F
Feels Like 62.5 °F
N
0.0
Wind Variable Wind from NW
Gusts 0.0 mph

Today
High -- | Low -- °F
--% Chance of Precip.
Yesterday
High -- | Low -- °F
Precip. -- in
5:32 AM 8:37 PM
Waxing Gibbous, 97% visible
Pressure 29.83 in
Visibility 5.0 miles
Clouds Clear
Dew Point 61 °F
Humidity 94%
Rainfall 0.00 in
Snow Depth Not available.
UV 0.0 out of 12
Pollen 3.40 out of 12
Air Quality Not available.
Flu Activity Sporadic
METAR KGBG 300955Z AUTO 00000KT 5SM BR CLR 17/16 A2983 RMK AO2 T01650161

More Conditions Fewer Conditions

Pressure 29.83 in
Visibility 5.0 miles
Clouds Clear
Dew Point 61 °F
Humidity 94%
Rainfall 0.00 in
Snow Depth Not available.
UV 0.0 out of 12
Pollen 3.40 out of 12
Air Quality Not available.
Flu Activity Sporadic
METAR KGBG 300955Z AUTO 00000KT 5SM BR CLR 17/16 A2983 RMK AO2 T01650161

More Conditions Fewer Conditions

10-Day Weather Forecast

×

Almanac

Astronomy

Jun. 30, 2015 Rise Set
Actual Time
Civil Twilight
Nautical Twilight
Astronomical Twilight
Moon
Length of Visible Light
Length of Day
Tomorrow will be .
, % of the Moon is Illuminated

Today's Extremes

State Highs State Lows

Community

WunderPhotos

Upload Photos

1,833,986 photos uploaded!

WunderBlogs® & News

Nearby

Air Quality

  Air Quality AQ Index Pollutant
Not available.

Snow Depth

Station Depth Elevation

Earthquake Activity

City Distance Mag. Time & Date
Minimum magnitude displayed is 2.5.

Coastal Water Temperatures

Place Temperature

Stations

Nearby Weather Stations

Station Location Temp. Windchill Dew Point Humidity Wind Precip. Elev Updated Type